Time;durP1;ratioP1;P1;durP2;ratioP2;P2;SDS_P1;SDS_P2;PMS_P1;PMS_P2;Temp;Humidity;BMP_temperature;BMP_pressure;BME280_temperature;BME280_humidity;BME280_pressure;Samples;Min_cycle;Max_cycle;Signal;HPM_P1;HPM_P2
2022/07/15 00:03:07;;;;;;;7.27;6.33;;;15.90;99.90;;;;;;2612647;54;20694;-74
2022/07/15 00:08:55;;;;;;;11.23;6.20;;;16.00;99.90;;;;;;2611594;54;20166;-75
2022/07/15 00:14:44;;;;;;;11.23;5.67;;;16.10;99.90;;;;;;2612534;54;20504;-73
2022/07/15 00:20:33;;;;;;;11.00;6.53;;;16.00;99.90;;;;;;2613084;39;20786;-73
2022/07/15 00:26:21;;;;;;;11.90;5.80;;;16.10;99.90;;;;;;2612459;54;20371;-74
2022/07/15 00:48:27;;;;;;;8.47;4.67;;;16.30;98.10;;;;;;2612927;54;20410;-73
2022/07/15 00:54:16;;;;;;;7.60;4.40;;;16.50;97.40;;;;;;2612217;54;20124;-73
2022/07/15 01:00:05;;;;;;;7.17;4.27;;;16.50;97.00;;;;;;2612794;54;20392;-73
2022/07/15 01:05:54;;;;;;;6.17;3.80;;;16.40;97.90;;;;;;2613167;39;20833;-74
2022/07/15 01:11:41;;;;;;;6.23;3.77;;;16.20;97.40;;;;;;2613054;54;20457;-73
2022/07/15 01:17:29;;;;;;;11.50;4.20;;;16.20;95.10;;;;;;2614238;54;20155;-74
2022/07/15 01:23:18;;;;;;;7.20;4.63;;;16.20;90.60;;;;;;2614111;39;20519;-73
2022/07/15 01:29:05;;;;;;;7.40;4.80;;;16.30;85.00;;;;;;2613535;54;20405;-74
2022/07/15 01:34:53;;;;;;;5.30;4.70;;;16.20;86.00;;;;;;2613811;54;20139;-73
2022/07/15 01:40:41;;;;;;;8.80;4.90;;;16.20;84.80;;;;;;2614083;54;20123;-72
2022/07/15 01:46:29;;;;;;;6.87;4.50;;;16.10;86.70;;;;;;2612808;54;20125;-74
2022/07/15 01:52:17;;;;;;;6.47;4.60;;;16.10;89.90;;;;;;2615060;54;20412;-72
2022/07/15 01:58:04;;;;;;;8.80;4.50;;;16.00;90.20;;;;;;2610172;54;20158;-74
2022/07/15 02:03:52;;;;;;;10.20;3.63;;;16.00;91.50;;;;;;2613033;39;20610;-74
2022/07/15 02:09:39;;;;;;;9.40;5.40;;;15.90;92.20;;;;;;2612491;39;20569;-73
2022/07/15 02:19:04;;;;;;;10.00;3.40;;;15.80;94.80;;;;;;2611681;54;20413;-73
2022/07/15 02:24:51;;;;;;;5.23;3.40;;;15.60;96.70;;;;;;2611561;54;20292;-73
2022/07/15 02:30:40;;;;;;;4.80;3.63;;;15.40;99.90;;;;;;2611135;54;20141;-73
2022/07/15 02:36:28;;;;;;;10.10;4.37;;;15.20;99.90;;;;;;2613192;54;20395;-73
2022/07/15 02:42:15;;;;;;;7.90;4.43;;;15.10;99.90;;;;;;2613114;54;21282;-74
2022/07/15 02:48:04;;;;;;;5.83;3.97;;;15.00;99.90;;;;;;2613055;54;20114;-75
2022/07/15 02:53:51;;;;;;;6.53;4.90;;;14.80;99.90;;;;;;2614474;39;20772;-75
2022/07/15 02:59:39;;;;;;;5.57;4.63;;;14.40;99.90;;;;;;2614412;39;20543;-75
2022/07/15 03:05:27;;;;;;;5.70;4.77;;;14.30;99.90;;;;;;2612336;54;20131;-75
2022/07/15 03:11:15;;;;;;;9.80;3.83;;;14.20;99.90;;;;;;2611997;54;20149;-75
2022/07/15 03:17:02;;;;;;;6.87;4.77;;;13.80;99.90;;;;;;2613076;54;20636;-75
2022/07/15 03:22:50;;;;;;;7.93;4.90;;;13.80;99.90;;;;;;2612974;31;20652;-75
2022/07/15 03:28:38;;;;;;;6.37;4.50;;;13.60;99.90;;;;;;2612764;54;20125;-75
2022/07/15 03:31:05;;;;;;;6.33;4.73;;;13.70;99.90;;;;;;2612610;54;20412;-74
2022/07/15 03:33:30;;;;;;;8.00;4.63;;;13.70;99.90;;;;;;2612826;54;20166;-74
2022/07/15 03:39:19;;;;;;;9.53;5.77;;;13.70;99.90;;;;;;2613210;54;21024;-76
2022/07/15 03:45:07;;;;;;;7.87;5.73;;;13.60;99.90;;;;;;2613861;54;20420;-74
2022/07/15 03:50:54;;;;;;;9.50;5.63;;;13.10;99.90;;;;;;2607356;46;20402;-75
2022/07/15 03:56:41;;;;;;;7.07;4.93;;;13.00;99.90;;;;;;2610789;39;20256;-74
2022/07/15 04:02:28;;;;;;;8.27;5.00;;;12.90;99.90;;;;;;2611905;54;20740;-73
2022/07/15 04:11:51;;;;;;;12.10;6.40;;;12.90;99.90;;;;;;2611743;54;20503;-74
2022/07/15 04:17:38;;;;;;;13.63;6.67;;;12.90;99.90;;;;;;2610694;54;20138;-75
2022/07/15 04:23:25;;;;;;;9.27;5.50;;;13.20;99.90;;;;;;2611220;54;20134;-73
2022/07/15 04:29:13;;;;;;;19.07;5.63;;;13.50;99.90;;;;;;2611908;54;20146;-73
2022/07/15 04:35:00;;;;;;;7.63;5.70;;;13.50;99.90;;;;;;2613586;54;20227;-74
2022/07/15 04:40:47;;;;;;;11.50;5.63;;;13.80;99.90;;;;;;2612369;54;20171;-74
2022/07/15 04:46:35;;;;;;;13.57;6.50;;;14.10;99.90;;;;;;2613103;54;20311;-74
2022/07/15 04:52:24;;;;;;;6.90;5.20;;;14.30;99.90;;;;;;2614723;54;20122;-74
2022/07/15 04:58:14;;;;;;;9.60;5.60;;;14.70;99.90;;;;;;2613934;54;20383;-73
2022/07/15 05:01:17;;;;;;;8.37;5.67;;;14.90;99.90;;;;;;2610112;54;20423;-74
2022/07/15 05:03:43;;;;;;;14.73;7.33;;;15.00;99.90;;;;;;2612207;47;20446;-74
2022/07/15 05:09:31;;;;;;;11.47;6.23;;;15.40;99.90;;;;;;2613447;54;20139;-74
2022/07/15 05:15:18;;;;;;;6.70;4.53;;;16.20;99.90;;;;;;2609610;54;20391;-76
2022/07/15 05:21:06;;;;;;;8.97;6.07;;;16.60;99.90;;;;;;2607720;54;20135;-73
2022/07/15 05:26:55;;;;;;;12.10;8.17;;;17.40;91.20;;;;;;2610183;54;20153;-73
2022/07/15 05:42:55;;;;;;;5.67;5.10;;;18.30;63.10;;;;;;2610563;54;20403;-75
2022/07/15 05:48:42;;;;;;;10.53;4.20;;;18.30;51.00;;;;;;2614141;54;20168;-74
2022/07/15 05:54:29;;;;;;;7.77;5.00;;;18.30;57.30;;;;;;2614264;54;20177;-75
2022/07/15 06:00:16;;;;;;;7.50;4.23;;;19.10;41.60;;;;;;2613874;54;20793;-74
2022/07/15 06:06:06;;;;;;;8.80;4.60;;;18.80;35.80;;;;;;2613550;54;20155;-73
2022/07/15 06:11:53;;;;;;;4.53;3.57;;;20.10;25.20;;;;;;2614047;54;20943;-74
2022/07/15 06:17:41;;;;;;;9.70;5.50;;;20.70;18.30;;;;;;2614167;54;20394;-74
2022/07/15 06:23:29;;;;;;;7.20;3.93;;;20.90;7.70;;;;;;2614273;54;20394;-74
2022/07/15 06:29:16;;;;;;;6.10;4.43;;;20.00;12.70;;;;;;2615150;54;20428;-74
2022/07/15 06:38:27;;;;;;;5.80;4.23;;;19.90;11.20;;;;;;2611380;54;20447;-74
2022/07/15 06:44:15;;;;;;;8.43;4.60;;;19.20;15.50;;;;;;2610790;39;20789;-74
2022/07/15 06:50:04;;;;;;;4.90;4.10;;;18.60;20.40;;;;;;2611870;54;20422;-75
2022/07/15 06:55:52;;;;;;;7.30;4.47;;;18.60;23.20;;;;;;2611009;54;20417;-76
2022/07/15 07:01:40;;;;;;;7.63;4.97;;;18.60;19.80;;;;;;2610975;54;20419;-75
2022/07/15 07:07:27;;;;;;;6.13;4.40;;;18.60;18.50;;;;;;2611927;54;20670;-74
2022/07/15 07:13:14;;;;;;;13.80;5.60;;;19.20;16.20;;;;;;2612376;54;20393;-74
2022/07/15 07:22:23;;;;;;;7.73;4.10;;;20.00;8.90;;;;;;2610794;39;20752;-75
2022/07/15 07:28:10;;;;;;;7.27;3.90;;;19.60;10.10;;;;;;2612361;39;20540;-74
2022/07/15 07:33:58;;;;;;;10.27;5.03;;;19.40;12.00;;;;;;2629375;36;20501;-75
2022/07/15 07:39:46;;;;;;;9.03;3.87;;;19.30;11.60;;;;;;2613288;54;20410;-75
2022/07/15 07:45:33;;;;;;;5.30;3.50;;;19.80;9.80;;;;;;2612470;54;20133;-75
2022/07/15 07:51:21;;;;;;;5.60;4.13;;;21.80;4.30;;;;;;2611338;39;20519;-74
2022/07/15 07:57:09;;;;;;;9.90;4.30;;;22.90;1.00;;;;;;2612514;46;20250;-74
2022/07/15 08:02:59;;;;;;;6.20;4.30;;;21.30;1.00;;;;;;2612150;54;20448;-74
2022/07/15 08:08:46;;;;;;;6.57;4.30;;;20.50;1.80;;;;;;2615312;54;20485;-74
2022/07/15 08:14:34;;;;;;;10.93;4.90;;;20.60;1.50;;;;;;2615853;31;20534;-77
2022/07/15 08:20:22;;;;;;;6.77;5.10;;;21.60;1.00;;;;;;2614280;54;20230;-74
2022/07/15 08:26:13;;;;;;;9.07;3.77;;;20.70;2.10;;;;;;2612101;54;20503;-75
2022/07/15 08:32:01;;;;;;;6.80;4.13;;;20.60;2.70;;;;;;2615044;39;21048;-74
2022/07/15 08:41:11;;;;;;;7.97;3.80;;;19.20;6.00;;;;;;2615084;54;20434;-71
2022/07/15 08:47:02;;;;;;;8.90;4.93;;;21.70;1.00;;;;;;2611903;54;20897;-71
2022/07/15 08:52:53;;;;;;;4.83;4.00;;;23.90;1.00;;;;;;2613951;54;20459;-72
2022/07/15 08:58:40;;;;;;;4.27;3.87;;;24.00;1.00;;;;;;2613727;54;20382;-72
2022/07/15 09:04:28;;;;;;;4.70;4.10;;;24.30;1.00;;;;;;2613415;54;20134;-72
2022/07/15 09:10:16;;;;;;;8.27;4.20;;;22.50;1.00;;;;;;2615637;54;20165;-73
2022/07/15 09:16:08;;;;;;;4.23;3.83;;;20.30;1.00;;;;;;2614884;54;20126;-72
2022/07/15 09:22:02;;;;;;;4.67;4.07;;;22.50;1.00;;;;;;2613300;54;20396;-73
2022/07/15 09:27:50;;;;;;;4.40;4.00;;;24.40;4.10;;;;;;2612346;54;20427;-71
2022/07/15 09:33:39;;;;;;;5.90;4.80;;;25.30;1.00;;;;;;2615120;54;20417;-70
2022/07/15 09:56:39;;;;;;;6.93;3.40;;;22.10;1.00;;;;;;2611139;54;20959;-72
2022/07/15 10:05:51;;;;;;;5.40;3.90;;;20.90;1.00;;;;;;2611358;54;20431;-72
2022/07/15 10:11:46;;;;;;;3.90;3.53;;;21.10;1.00;;;;;;2612548;54;20370;-72
2022/07/15 10:17:43;;;;;;;11.47;4.03;;;;;;;;;;2612407;54;20497;-71
2022/07/15 10:30:04;;;;;;;6.63;4.10;;;24.90;1.00;;;;;;2612389;39;20821;-72
2022/07/15 10:59:52;;;;;;;4.00;3.70;;;24.10;1.00;;;;;;2608607;54;20473;-73
2022/07/15 11:05:45;;;;;;;5.03;3.37;;;24.00;1.00;;;;;;2612120;46;20504;-72
2022/07/15 11:11:44;;;;;;;6.70;3.70;;;25.40;1.00;;;;;;2611363;54;20395;-73
2022/07/15 11:17:33;;;;;;;4.27;3.87;;;24.30;1.00;;;;;;2611146;54;20905;-71
2022/07/15 11:30:07;;;;;;;3.60;3.30;;;23.50;1.00;;;;;;2612328;39;20841;-73
2022/07/15 11:35:57;;;;;;;4.63;3.97;;;24.40;1.00;;;;;;2611865;47;21637;-74
2022/07/15 11:44:58;;;;;;;7.10;4.10;;;24.00;1.00;;;;;;2612170;54;20535;-72
2022/07/15 11:50:52;;;;;;;5.17;4.70;;;22.80;1.00;;;;;;2611920;54;20413;-74
2022/07/15 11:56:39;;;;;;;3.97;3.50;;;23.90;1.00;;;;;;2610577;46;20452;-75
2022/07/15 12:02:28;;;;;;;4.27;3.87;;;26.20;1.00;;;;;;2611474;54;20176;-72
2022/07/15 12:08:14;;;;;;;4.10;3.80;;;25.70;1.00;;;;;;2629744;36;20965;-71
2022/07/15 12:20:43;;;;;;;4.30;3.80;;;26.10;1.00;;;;;;2613027;39;21089;-72
2022/07/15 12:26:32;;;;;;;3.90;3.70;;;24.50;1.00;;;;;;2614581;39;20799;-73
2022/07/15 12:32:20;;;;;;;5.53;4.43;;;23.90;1.00;;;;;;2612243;54;20413;-72
2022/07/15 12:38:08;;;;;;;4.40;3.40;;;24.40;1.00;;;;;;2613592;54;20427;-71
2022/07/15 12:47:22;;;;;;;3.50;3.20;;;23.90;1.00;;;;;;2614771;54;21520;-72
2022/07/15 12:53:10;;;;;;;4.10;3.90;;;23.90;1.00;;;;;;2613714;54;20897;-72
2022/07/15 12:58:58;;;;;;;4.00;3.47;;;25.20;1.00;;;;;;2614221;54;20724;-74
2022/07/15 13:04:46;;;;;;;4.40;4.00;;;27.40;1.00;;;;;;2613716;54;20131;-74
2022/07/15 13:10:34;;;;;;;3.80;3.60;;;27.60;1.00;;;;;;2611807;54;20135;-74
2022/07/15 13:16:22;;;;;;;3.40;3.20;;;26.90;1.00;;;;;;2611765;54;20472;-72
2022/07/15 13:22:09;;;;;;;3.63;3.43;;;25.60;1.00;;;;;;2612164;54;20130;-71
2022/07/15 13:27:58;;;;;;;3.70;3.40;;;24.50;1.00;;;;;;2611212;54;20158;-71
2022/07/15 13:33:46;;;;;;;3.63;3.33;;;24.30;1.00;;;;;;2611698;39;21705;-74
2022/07/15 13:39:34;;;;;;;4.23;3.83;;;24.20;1.00;;;;;;2614254;54;20566;-71
2022/07/15 13:45:29;;;;;;;3.63;3.30;;;24.50;1.00;;;;;;2609647;47;20400;-71
2022/07/15 13:51:23;;;;;;;4.40;3.33;;;24.40;1.00;;;;;;2611736;54;20540;-71
2022/07/15 13:57:09;;;;;;;6.83;4.00;;;23.90;1.00;;;;;;2610244;54;20382;-71
2022/07/15 14:02:57;;;;;;;4.07;3.17;;;24.00;1.00;;;;;;2612039;54;20174;-71
2022/07/15 14:08:44;;;;;;;3.60;3.30;;;23.80;1.00;;;;;;2611012;39;20366;-71
2022/07/15 14:14:31;;;;;;;3.93;3.63;;;23.90;1.00;;;;;;2610755;54;20169;-71
2022/07/15 14:20:18;;;;;;;3.50;3.20;;;24.20;1.00;;;;;;2608895;54;20153;-74
2022/07/15 14:26:06;;;;;;;3.10;3.00;;;23.90;1.00;;;;;;2612927;54;20723;-73
2022/07/15 14:31:54;;;;;;;4.03;3.63;;;24.20;1.00;;;;;;2613779;54;20147;-74
2022/07/15 14:37:42;;;;;;;4.90;3.43;;;24.30;1.00;;;;;;2613680;54;20146;-74
2022/07/15 14:53:40;;;;;;;3.00;2.80;;;23.60;1.00;;;;;;2611929;54;20389;-73
2022/07/15 14:59:27;;;;;;;3.23;3.03;;;23.60;1.00;;;;;;2611661;54;20148;-74
2022/07/15 15:05:14;;;;;;;6.47;4.23;;;23.80;1.00;;;;;;2612610;54;20173;-73
2022/07/15 15:11:01;;;;;;;4.63;4.23;;;23.30;1.00;;;;;;2611151;54;20165;-72
2022/07/15 15:16:48;;;;;;;3.50;3.30;;;23.50;1.00;;;;;;2608647;54;20136;-75
2022/07/15 15:22:36;;;;;;;4.10;3.80;;;24.40;1.00;;;;;;2612305;39;20785;-74
2022/07/15 15:28:24;;;;;;;4.03;3.60;;;24.60;1.00;;;;;;2611405;54;20347;-74
2022/07/15 15:34:12;;;;;;;4.77;4.47;;;25.50;1.00;;;;;;2613364;54;20126;-73
2022/07/15 15:39:59;;;;;;;5.13;4.20;;;25.10;1.00;;;;;;2612579;54;20143;-75
2022/07/15 15:42:44;;;;;;;3.80;3.50;;;24.30;1.00;;;;;;2613421;54;20439;-74
2022/07/15 15:45:10;;;;;;;4.10;3.80;;;24.30;1.00;;;;;;2611301;54;20187;-74
2022/07/15 15:50:58;;;;;;;5.13;4.67;;;25.00;1.00;;;;;;2612023;54;20431;-76
2022/07/15 15:56:45;;;;;;;4.10;3.80;;;25.20;1.00;;;;;;2613179;54;20403;-73
2022/07/15 16:02:33;;;;;;;4.57;4.17;;;24.30;1.00;;;;;;2613140;54;20147;-74
2022/07/15 16:08:21;;;;;;;4.17;3.80;;;25.10;1.00;;;;;;2613735;54;20157;-75
2022/07/15 16:14:08;;;;;;;4.00;3.70;;;24.50;1.00;;;;;;2614493;54;20117;-74
2022/07/15 16:19:56;;;;;;;4.27;3.70;;;24.50;1.00;;;;;;2613954;54;20694;-76
2022/07/15 16:25:45;;;;;;;4.43;4.03;;;25.00;1.00;;;;;;2612220;39;20715;-74
2022/07/15 16:31:33;;;;;;;5.30;4.87;;;25.40;1.00;;;;;;2613300;54;20426;-74
2022/07/15 16:37:21;;;;;;;7.73;3.53;;;24.80;1.00;;;;;;2612405;54;20467;-74
2022/07/15 16:53:22;;;;;;;3.90;3.67;;;25.30;1.00;;;;;;2612756;54;20389;-75
2022/07/15 16:59:10;;;;;;;7.40;4.87;;;24.80;1.00;;;;;;2613485;54;20146;-74
2022/07/15 17:04:57;;;;;;;12.73;4.00;;;24.10;1.00;;;;;;2612505;54;20947;-75
2022/07/15 17:10:44;;;;;;;4.80;4.40;;;23.60;1.00;;;;;;2613191;54;20162;-75
2022/07/15 17:16:32;;;;;;;5.07;3.67;;;24.30;1.00;;;;;;2612872;54;20138;-73
2022/07/15 17:22:19;;;;;;;4.37;4.00;;;24.40;1.00;;;;;;2613176;54;20129;-72
2022/07/15 17:28:06;;;;;;;3.90;3.60;;;24.10;1.00;;;;;;2613227;54;20739;-74
2022/07/15 17:33:36;;;;;;;8.00;3.70;;;;;;;;;;2614799;39;20957;-74
2022/07/15 17:39:23;;;;;;;4.17;3.87;;;22.20;1.00;;;;;;2612048;54;20383;-73
2022/07/15 17:54:57;;;;;;;4.60;4.20;;;22.40;1.00;;;;;;2613108;39;20837;-73
2022/07/15 18:00:45;;;;;;;7.23;4.30;;;22.10;1.00;;;;;;2613491;54;20123;-74
2022/07/15 18:06:32;;;;;;;4.80;4.40;;;21.70;1.00;;;;;;2613233;54;20432;-74
2022/07/15 18:12:19;;;;;;;33.67;23.73;;;21.60;1.00;;;;;;2614033;39;20534;-73
2022/07/15 18:18:07;;;;;;;12.80;5.23;;;21.50;1.00;;;;;;2612867;39;20423;-74
2022/07/15 18:23:54;;;;;;;70.87;50.33;;;21.20;1.00;;;;;;2612952;54;20127;-75
2022/07/15 18:29:42;;;;;;;38.93;34.47;;;21.70;1.00;;;;;;2613061;54;20113;-74
2022/07/15 18:35:30;;;;;;;5.13;4.10;;;21.60;1.00;;;;;;2614683;54;20157;-74
2022/07/15 18:41:18;;;;;;;3.90;3.60;;;21.60;1.00;;;;;;2613841;54;20162;-74
2022/07/15 18:47:24;;;;;;;3.33;2.93;;;21.60;1.00;;;;;;2613125;54;20142;-74
2022/07/15 18:53:11;;;;;;;3.03;2.83;;;21.60;1.00;;;;;;2611323;54;20168;-75
2022/07/15 18:58:58;;;;;;;3.27;3.07;;;21.50;1.00;;;;;;2612447;54;21058;-75
2022/07/15 19:04:45;;;;;;;4.13;3.10;;;22.70;1.00;;;;;;2611429;54;20242;-74
2022/07/15 19:10:33;;;;;;;2.90;2.70;;;21.00;1.00;;;;;;2612232;54;20126;-73
2022/07/15 19:16:20;;;;;;;5.30;3.43;;;20.70;1.00;;;;;;2610461;54;20391;-74
2022/07/15 19:22:10;;;;;;;3.30;3.00;;;20.80;1.00;;;;;;2613374;54;20130;-76
2022/07/15 19:27:57;;;;;;;5.57;4.23;;;20.60;1.00;;;;;;2613567;54;20399;-75
2022/07/15 19:33:45;;;;;;;4.10;3.20;;;20.30;1.00;;;;;;2614184;54;20151;-74
2022/07/15 19:39:33;;;;;;;4.10;3.10;;;20.00;1.00;;;;;;2612246;54;20931;-74
2022/07/15 19:55:34;;;;;;;3.70;3.40;;;19.50;1.00;;;;;;2612328;54;20451;-73
2022/07/15 20:01:21;;;;;;;3.10;2.90;;;19.20;1.00;;;;;;2612195;54;20154;-74
2022/07/15 20:07:08;;;;;;;5.30;3.70;;;19.30;1.00;;;;;;2612119;54;20137;-75
2022/07/15 20:12:56;;;;;;;7.80;3.67;;;19.00;1.10;;;;;;2612733;54;20291;-73
2022/07/15 20:18:44;;;;;;;7.77;3.80;;;18.80;2.50;;;;;;2612539;54;20427;-73
2022/07/15 20:24:31;;;;;;;3.57;3.30;;;18.50;3.60;;;;;;2610756;54;20129;-75
2022/07/15 20:30:19;;;;;;;3.70;3.40;;;18.20;4.90;;;;;;2614274;39;20417;-74
2022/07/15 20:36:07;;;;;;;3.67;3.23;;;18.10;7.30;;;;;;2613063;54;20394;-74
2022/07/15 20:41:55;;;;;;;6.00;3.30;;;18.00;7.20;;;;;;2612570;54;20162;-75
2022/07/15 20:51:05;;;;;;;4.77;3.20;;;17.80;11.90;;;;;;2613431;54;20425;-74
2022/07/15 20:56:52;;;;;;;5.67;3.67;;;17.70;12.10;;;;;;2611540;46;20159;-74
2022/07/15 21:02:40;;;;;;;7.23;4.20;;;17.60;12.50;;;;;;2614517;54;20152;-74
2022/07/15 21:08:28;;;;;;;8.63;6.27;;;17.40;15.30;;;;;;2614687;39;20573;-73
2022/07/15 21:14:16;;;;;;;10.80;9.73;;;17.10;16.00;;;;;;2613576;39;20726;-74
2022/07/15 21:20:05;;;;;;;5.93;5.33;;;17.10;16.50;;;;;;2614139;54;20144;-74
2022/07/15 21:31:59;;;;;;;11.70;10.60;;;16.90;18.60;;;;;;2612892;54;20383;-73
2022/07/15 21:37:47;;;;;;;4.37;4.07;;;16.90;19.10;;;;;;2613247;54;20121;-73
2022/07/15 21:43:35;;;;;;;4.93;4.43;;;16.80;20.40;;;;;;2612822;54;20124;-73
2022/07/15 22:03:19;;;;;;;7.73;6.87;;;16.70;25.00;;;;;;2613214;54;20492;-73
2022/07/15 22:09:07;;;;;;;8.63;6.23;;;16.50;26.90;;;;;;2611890;54;20142;-73
2022/07/15 22:14:54;;;;;;;7.03;4.97;;;16.40;30.50;;;;;;2612829;54;20491;-74
2022/07/15 22:20:41;;;;;;;6.83;6.13;;;16.50;29.60;;;;;;2612584;54;20179;-73
2022/07/15 22:26:28;;;;;;;7.10;4.60;;;16.50;31.10;;;;;;2609925;54;20190;-74
2022/07/15 22:32:15;;;;;;;5.67;4.50;;;16.70;29.70;;;;;;2611943;39;21058;-74
2022/07/15 22:38:03;;;;;;;4.47;4.07;;;16.80;28.70;;;;;;2614010;54;20156;-72
2022/07/15 22:43:51;;;;;;;6.07;4.63;;;16.90;28.00;;;;;;2613369;54;20134;-73
2022/07/15 22:49:55;;;;;;;7.40;5.47;;;17.00;27.10;;;;;;2613200;54;20159;-74
2022/07/15 22:55:42;;;;;;;4.93;4.43;;;17.20;26.70;;;;;;2612426;54;20135;-74
2022/07/15 22:58:45;;;;;;;5.40;4.90;;;17.20;25.70;;;;;;2612404;54;21073;-74
2022/07/15 23:01:11;;;;;;;6.50;5.13;;;17.30;25.40;;;;;;2611648;51;20304;-73
2022/07/15 23:06:58;;;;;;;6.93;5.17;;;17.40;24.70;;;;;;2610515;54;20264;-73
2022/07/15 23:12:45;;;;;;;6.73;4.93;;;17.50;24.80;;;;;;2612436;54;20445;-73
2022/07/15 23:18:34;;;;;;;5.07;4.40;;;17.50;24.80;;;;;;2611245;54;20163;-75
2022/07/15 23:24:21;;;;;;;6.50;4.63;;;17.40;26.90;;;;;;2613822;54;20385;-73
2022/07/15 23:30:09;;;;;;;7.40;5.20;;;17.20;28.90;;;;;;2614493;54;20159;-73
2022/07/15 23:35:57;;;;;;;6.97;5.07;;;16.90;34.00;;;;;;2612905;54;20962;-74
2022/07/15 23:41:45;;;;;;;9.77;4.87;;;16.70;41.40;;;;;;2614057;54;20674;-73
2022/07/15 23:57:49;;;;;;;5.63;4.50;;;16.10;65.40;;;;;;2608369;54;20411;-73
